Strona główna
METAR-TAF:

METAR-TAF

Lotnisko :

Sullivan County International Airport

Monticello, Nowy Jork, Stany Zjednoczone

Szerokość geograficzna: 41-42N, Długość geograficzna: 074-48W, wysokość: 428 m

Aktualna obserwacja pogody

Raport powstał 15 minut temu, godzina 06:56 UTC
Wiatr 3 kt od wschodnio-północny wschód
Temperatura -1°C
Wilgotność 100%
Ciśnienie 1020 hPa
Widzialność: 6.4 km
Zachmurzenie całkowite na wysokości 1100 ft
niezidentyfikowany opad, zamglenie

METAR: KMSV 190656Z AUTO 06003KT 4SM UP BR OVC011 M01/M01 A3012 RMK AO2 UPB53SNE53 SLP215 P0005 T10061011 FZRANO

czas: 02:11 (07:11 UTC)


TAF: brakujący

Obserwacja i prognoza pogody dla ponad 4000 lotnisk (raport METAR i TAF).

Dostępne stacje oznaczono żółtymi i czerwonymi punktami na mapie.

Najedź kursorem aby zobaczyć nazwę stacji.

Kliknij aby zobaczyć obserwacje i prognozy pogody.

Aby zmienić mapę: kliknij na zielony przycisk z czarnym krzyżykiem, aby powiększyć; na zielony przycisk z myślnikiem, aby pomniejszyć; na zielone strzałki, aby przejść do map sąsiednich.


METAR-TAF: